createdAt,value
2023-04-03T00:00:47.148Z,70.91
2023-04-03T00:03:15.116Z,71.50
2023-04-03T00:05:44.268Z,71.91
2023-04-03T00:08:11.942Z,72.21
2023-04-03T00:10:40.054Z,72.61
2023-04-03T00:13:09.373Z,72.84
2023-04-03T00:15:39.045Z,72.32
2023-04-03T00:18:07.444Z,72.22
2023-04-03T00:20:36.110Z,72.48
2023-04-03T00:23:05.350Z,72.03
2023-04-03T00:25:33.073Z,72.47
2023-04-03T00:28:01.003Z,72.49
2023-04-03T00:30:28.567Z,72.57
2023-04-03T00:32:56.470Z,71.69
2023-04-03T00:35:25.373Z,71.62
2023-04-03T00:37:55.301Z,71.93
2023-04-03T00:40:27.586Z,72.64
2023-04-03T00:42:59.124Z,72.51
2023-04-03T00:45:33.287Z,73.62
2023-04-03T00:48:03.095Z,73.89
2023-04-03T00:50:31.654Z,73.49
2023-04-03T00:53:00.537Z,72.64
2023-04-03T00:55:29.697Z,72.45
2023-04-03T00:57:58.369Z,71.68
2023-04-03T01:00:27.080Z,72.85
2023-04-03T01:02:54.702Z,73.25
2023-04-03T01:05:23.839Z,73.31
2023-04-03T01:07:53.294Z,73.27
2023-04-03T01:10:22.635Z,72.31
2023-04-03T01:12:52.377Z,72.24
2023-04-03T01:15:23.753Z,72.37
2023-04-03T01:17:53.500Z,71.92
2023-04-03T01:21:02.604Z,71.40
2023-04-03T01:23:41.127Z,71.25
2023-04-03T01:26:09.942Z,70.51
2023-04-03T01:28:39.327Z,70.77
2023-04-03T01:31:16.549Z,71.26
2023-04-03T01:33:46.465Z,71.08
2023-04-03T01:36:19.582Z,71.79
2023-04-03T01:38:47.219Z,72.26
2023-04-03T01:41:16.584Z,72.72
2023-04-03T01:43:44.540Z,73.05
2023-04-03T01:46:12.493Z,73.35
2023-04-03T01:48:40.924Z,74.02
2023-04-03T01:51:09.844Z,73.96
2023-04-03T01:53:37.618Z,74.04
2023-04-03T01:56:05.580Z,73.49
2023-04-03T01:58:33.374Z,73.20
2023-04-03T02:01:01.367Z,73.69
2023-04-03T02:03:29.055Z,73.83
2023-04-03T02:05:57.176Z,74.10
2023-04-03T02:08:26.295Z,73.75
2023-04-03T02:10:53.993Z,73.72
2023-04-03T02:13:21.742Z,73.83
2023-04-03T02:15:49.585Z,73.86
2023-04-03T02:18:17.596Z,74.15
2023-04-03T02:20:45.821Z,74.62
2023-04-03T02:23:13.540Z,74.54
2023-04-03T02:25:42.687Z,74.18
2023-04-03T02:28:10.431Z,74.59
2023-04-03T02:30:38.293Z,74.79
2023-04-03T02:33:06.008Z,75.32
2023-04-03T02:35:33.600Z,76.37
2023-04-03T02:38:01.198Z,77.53
2023-04-03T02:40:28.880Z,76.88
2023-04-03T02:42:57.873Z,77.13
2023-04-03T02:45:25.613Z,77.77
2023-04-03T02:47:53.293Z,78.43
2023-04-03T02:50:20.933Z,77.76
2023-04-03T02:52:48.568Z,77.87
2023-04-03T02:55:17.129Z,77.19
2023-04-03T02:57:44.719Z,76.95
2023-04-03T03:00:15.339Z,77.59
2023-04-03T03:02:43.161Z,77.55
2023-04-03T03:05:12.207Z,78.21
2023-04-03T03:07:39.860Z,79.00
2023-04-03T03:10:08.474Z,78.91
2023-04-03T03:12:36.141Z,78.50
2023-04-03T03:15:03.703Z,79.40
2023-04-03T03:17:32.982Z,77.32
2023-04-03T03:20:00.779Z,76.93
2023-04-03T03:22:32.908Z,76.63
2023-04-03T03:25:00.614Z,75.44
2023-04-03T03:27:28.252Z,74.54
2023-04-03T03:29:56.608Z,74.55
2023-04-03T03:32:24.359Z,73.45
2023-04-03T03:34:53.314Z,72.54
2023-04-03T03:37:21.056Z,71.84
2023-04-03T03:39:48.660Z,72.40
2023-04-03T03:42:16.564Z,72.07
2023-04-03T03:44:44.132Z,72.21
2023-04-03T03:47:12.021Z,72.66
2023-04-03T03:49:39.798Z,73.42
2023-04-03T03:52:11.389Z,73.53
2023-04-03T03:54:39.136Z,73.62
2023-04-03T03:57:06.850Z,71.52
2023-04-03T03:59:34.623Z,71.71
2023-04-03T04:02:02.332Z,71.94
2023-04-03T04:04:30.101Z,71.89
2023-04-03T04:06:57.745Z,71.59
2023-04-03T04:09:26.757Z,71.38
2023-04-03T04:11:54.696Z,71.88
2023-04-03T04:14:22.459Z,71.35
2023-04-03T04:16:50.752Z,72.18
2023-04-03T04:19:18.361Z,72.34
2023-04-03T04:21:46.484Z,71.70
2023-04-03T04:24:14.142Z,72.68
2023-04-03T04:26:43.104Z,72.43
2023-04-03T04:29:11.030Z,72.79
2023-04-03T04:31:38.737Z,72.36
2023-04-03T04:34:06.411Z,72.98
2023-04-03T04:36:34.404Z,73.86
2023-04-03T04:39:02.052Z,74.25
2023-04-03T04:41:30.141Z,73.59
2023-04-03T04:43:59.167Z,73.78
2023-04-03T04:46:26.960Z,73.13
2023-04-03T04:48:54.972Z,73.87
2023-04-03T04:51:22.703Z,73.66
2023-04-03T04:53:50.284Z,73.75
2023-04-03T04:56:17.907Z,73.80
2023-04-03T04:58:45.714Z,74.29
2023-04-03T05:01:14.724Z,74.30
2023-04-03T05:03:42.516Z,74.51
2023-04-03T05:06:10.354Z,74.23
2023-04-03T05:08:38.057Z,75.11
2023-04-03T05:11:05.828Z,74.97
2023-04-03T05:13:33.427Z,74.25
2023-04-03T05:16:01.040Z,74.05
2023-04-03T05:18:30.326Z,74.44
2023-04-03T05:20:58.745Z,73.99
2023-04-03T05:23:26.554Z,74.61
2023-04-03T05:25:55.041Z,72.44
2023-04-03T05:28:23.165Z,70.47
2023-04-03T05:30:56.163Z,68.48
2023-04-03T05:33:23.781Z,67.83
2023-04-03T05:35:52.695Z,65.40
2023-04-03T05:38:20.912Z,63.90
2023-04-03T05:40:49.066Z,65.36
2023-04-03T05:43:16.792Z,65.20
2023-04-03T05:45:46.872Z,64.30
2023-04-03T05:48:14.864Z,63.88
2023-04-03T05:50:43.412Z,65.41
2023-04-03T05:53:24.349Z,64.90
2023-04-03T05:55:52.173Z,63.88
2023-04-03T05:58:19.943Z,63.32
2023-04-03T06:00:47.937Z,62.45
2023-04-03T06:03:15.628Z,62.71
2023-04-03T06:05:43.884Z,61.77
2023-04-03T06:08:13.506Z,61.50
2023-04-03T06:10:41.246Z,61.32
2023-04-03T06:13:09.109Z,58.50
2023-04-03T06:15:36.887Z,55.53
2023-04-03T06:18:04.766Z,54.20
2023-04-03T06:20:33.065Z,53.95
2023-04-03T06:23:01.039Z,53.71
2023-04-03T06:25:30.305Z,52.88
2023-04-03T06:27:57.969Z,51.66
2023-04-03T06:30:25.648Z,52.17
2023-04-03T06:32:53.952Z,52.23
2023-04-03T06:35:21.988Z,51.48
2023-04-03T06:37:49.840Z,50.63
2023-04-03T06:40:22.833Z,48.99
2023-04-03T06:42:52.125Z,47.71
2023-04-03T06:45:20.399Z,48.65
2023-04-03T06:47:47.998Z,50.91
2023-04-03T06:50:16.220Z,51.06
2023-04-03T06:52:44.039Z,51.17
2023-04-03T06:55:12.149Z,51.52
2023-04-03T06:57:39.801Z,51.93
2023-04-03T07:00:22.153Z,50.43
2023-04-03T07:02:49.813Z,49.73
2023-04-03T07:05:17.585Z,51.48
2023-04-03T07:07:45.416Z,50.19
2023-04-03T07:10:13.429Z,50.03
2023-04-03T07:12:41.427Z,50.30
2023-04-03T07:15:13.195Z,51.73
2023-04-03T07:18:03.134Z,51.66
2023-04-03T07:20:50.957Z,53.34
2023-04-03T07:23:22.188Z,53.37
2023-04-03T07:25:52.401Z,54.52
2023-04-03T07:28:21.380Z,53.09
2023-04-03T07:30:52.446Z,51.07
2023-04-03T07:33:22.125Z,50.50
2023-04-03T07:35:49.849Z,49.70
2023-04-03T07:38:18.304Z,50.05
2023-04-03T07:40:48.239Z,49.80
2023-04-03T07:43:16.521Z,48.29
2023-04-03T07:45:46.058Z,50.09
2023-04-03T07:48:17.983Z,49.65
2023-04-03T07:50:47.252Z,49.65
2023-04-03T07:53:15.201Z,50.54
2023-04-03T07:55:44.716Z,48.99
2023-04-03T07:58:12.796Z,48.34
2023-04-03T08:00:41.170Z,48.87
2023-04-03T08:03:11.255Z,50.57
2023-04-03T08:05:42.399Z,50.41
2023-04-03T08:08:11.545Z,49.99
2023-04-03T08:10:39.442Z,49.43
2023-04-03T08:13:08.045Z,49.13
2023-04-03T08:15:36.265Z,49.61
2023-04-03T08:18:04.656Z,48.79
2023-04-03T08:20:32.432Z,49.24
2023-04-03T08:23:01.410Z,52.51
2023-04-03T08:25:30.508Z,50.57
2023-04-03T08:27:58.354Z,49.60
2023-04-03T08:30:26.214Z,50.81
2023-04-03T08:32:53.888Z,50.30
2023-04-03T08:35:24.102Z,51.08
2023-04-03T08:37:51.759Z,51.29
2023-04-03T08:40:21.202Z,50.19
2023-04-03T08:42:59.505Z,48.15
2023-04-03T08:45:36.111Z,48.92
2023-04-03T08:48:08.507Z,50.63
2023-04-03T08:50:41.541Z,50.43
2023-04-03T08:53:16.337Z,49.70
2023-04-03T08:55:49.938Z,49.52
2023-04-03T08:58:20.213Z,49.98
2023-04-03T09:00:50.864Z,49.49
2023-04-03T09:03:21.858Z,50.01
2023-04-03T09:05:55.151Z,49.42
2023-04-03T09:08:29.402Z,52.33
2023-04-03T09:11:11.098Z,53.22
2023-04-03T09:13:49.406Z,50.54
2023-04-03T09:16:25.030Z,50.73
2023-04-03T09:19:00.358Z,52.93
2023-04-03T09:21:34.489Z,53.16
2023-04-03T09:24:03.609Z,52.75
2023-04-03T09:26:37.589Z,52.61
2023-04-03T09:29:08.556Z,52.41
2023-04-03T09:31:41.882Z,52.09
2023-04-03T09:34:21.589Z,52.02
2023-04-03T09:36:51.143Z,53.83
2023-04-03T09:39:21.291Z,52.94
2023-04-03T09:42:02.232Z,53.94
2023-04-03T09:44:32.234Z,54.20
2023-04-03T09:47:01.270Z,54.15
2023-04-03T09:49:29.045Z,54.58
2023-04-03T09:51:57.220Z,53.36
2023-04-03T09:54:38.265Z,53.65
2023-04-03T09:57:15.367Z,52.29
2023-04-03T09:59:46.974Z,52.20
2023-04-03T10:02:30.489Z,51.89
2023-04-03T10:05:08.922Z,52.75
2023-04-03T10:07:41.256Z,51.51
2023-04-03T10:10:26.355Z,51.45
2023-04-03T10:13:10.582Z,52.57
2023-04-03T10:15:45.846Z,52.89
2023-04-03T10:18:31.431Z,51.78
2023-04-03T10:21:06.143Z,51.35
2023-04-03T10:23:42.874Z,50.72
2023-04-03T10:26:19.152Z,52.30
2023-04-03T10:28:56.741Z,51.00
2023-04-03T10:31:31.786Z,51.02
2023-04-03T10:34:07.250Z,51.53
2023-04-03T10:36:44.544Z,51.78
2023-04-03T10:39:24.689Z,52.14
2023-04-03T10:42:16.036Z,50.93
2023-04-03T10:45:09.429Z,49.87
2023-04-03T10:47:45.844Z,50.50
2023-04-03T10:50:28.456Z,50.45
2023-04-03T10:53:03.770Z,51.03
2023-04-03T10:55:37.856Z,50.77
2023-04-03T10:58:08.032Z,50.19
2023-04-03T11:00:44.683Z,49.97
2023-04-03T11:03:19.149Z,50.04
2023-04-03T11:05:50.345Z,49.26
2023-04-03T11:08:30.683Z,49.27
2023-04-03T11:11:01.885Z,48.02
2023-04-03T11:13:35.526Z,48.11
2023-04-03T11:16:07.005Z,47.41
2023-04-03T11:18:39.228Z,46.98
2023-04-03T11:21:14.735Z,47.34
2023-04-03T11:23:49.590Z,45.72
2023-04-03T11:26:19.334Z,46.31
2023-04-03T11:28:47.409Z,45.76
2023-04-03T11:31:33.229Z,45.84
2023-04-03T11:34:12.855Z,46.20
2023-04-03T11:36:45.355Z,46.07
2023-04-03T11:39:23.568Z,45.56
2023-04-03T11:41:53.368Z,45.04
2023-04-03T11:44:35.240Z,44.96
2023-04-03T11:47:05.416Z,45.43
2023-04-03T11:50:03.479Z,44.87
2023-04-03T11:52:58.340Z,45.22
2023-04-03T11:55:56.868Z,45.13
2023-04-03T11:58:26.052Z,44.33
2023-04-03T12:01:05.916Z,44.86
2023-04-03T12:04:09.605Z,43.84
2023-04-03T12:07:03.908Z,45.06
2023-04-03T12:09:36.635Z,44.99
2023-04-03T12:12:37.262Z,42.69
2023-04-03T12:15:50.921Z,43.96
2023-04-03T12:18:57.543Z,44.75
2023-04-03T12:22:08.346Z,43.87
2023-04-03T12:24:41.380Z,44.65
2023-04-03T12:27:23.751Z,45.06
2023-04-03T12:29:58.141Z,45.09
2023-04-03T12:32:40.018Z,44.39
2023-04-03T12:35:17.414Z,44.47
2023-04-03T12:38:06.739Z,43.59
2023-04-03T12:40:44.082Z,44.10
2023-04-03T12:43:31.973Z,42.28
2023-04-03T12:46:03.888Z,43.33
2023-04-03T12:48:35.695Z,42.14
2023-04-03T12:51:04.879Z,42.60
2023-04-03T12:53:35.668Z,42.31
2023-04-03T12:56:24.257Z,43.55
2023-04-03T12:58:53.061Z,43.21
2023-04-03T13:01:23.861Z,43.20
2023-04-03T13:03:55.114Z,43.38
2023-04-03T13:06:25.565Z,43.31
2023-04-03T13:08:55.637Z,43.08
2023-04-03T13:11:26.219Z,42.20
2023-04-03T13:13:58.618Z,43.87
2023-04-03T13:16:26.465Z,42.95
2023-04-03T13:18:55.615Z,43.25
2023-04-03T13:21:26.576Z,44.01
2023-04-03T13:24:11.562Z,43.05
2023-04-03T13:26:45.362Z,42.26
2023-04-03T13:29:31.116Z,43.08
2023-04-03T13:32:01.423Z,43.72
2023-04-03T13:34:32.512Z,43.18
2023-04-03T13:37:02.362Z,43.48
2023-04-03T13:39:32.110Z,43.53
2023-04-03T13:42:03.702Z,43.12
2023-04-03T13:44:35.350Z,42.29
2023-04-03T13:47:17.414Z,42.23
2023-04-03T13:49:47.071Z,42.35
2023-04-03T13:52:26.082Z,42.46
2023-04-03T13:54:56.454Z,42.73
2023-04-03T13:57:25.976Z,41.41
2023-04-03T13:59:54.123Z,43.14
2023-04-03T14:02:24.767Z,41.74
2023-04-03T14:04:57.390Z,42.50
2023-04-03T14:07:26.250Z,42.46
2023-04-03T14:09:54.481Z,42.34
2023-04-03T14:12:31.755Z,43.08
2023-04-03T14:15:01.899Z,43.04
2023-04-03T14:17:30.825Z,43.25
2023-04-03T14:19:59.847Z,43.24
2023-04-03T14:22:30.312Z,42.69
2023-04-03T14:24:58.353Z,42.48
2023-04-03T14:27:30.417Z,41.36
2023-04-03T14:29:59.908Z,41.87
2023-04-03T14:32:28.627Z,41.92
2023-04-03T14:34:58.008Z,41.95
2023-04-03T14:37:28.815Z,41.87
2023-04-03T14:39:57.756Z,42.72
2023-04-03T14:42:28.120Z,43.11
2023-04-03T14:44:58.838Z,42.40
2023-04-03T14:47:32.920Z,42.47
2023-04-03T14:50:02.138Z,43.23
2023-04-03T14:52:32.067Z,42.64
2023-04-03T14:55:09.374Z,43.35
2023-04-03T14:57:40.959Z,42.90
2023-04-03T15:00:17.237Z,43.01
2023-04-03T15:02:46.005Z,43.52
2023-04-03T15:05:17.201Z,43.26
2023-04-03T15:07:49.214Z,42.21
2023-04-03T15:10:20.409Z,43.12
2023-04-03T15:12:49.384Z,42.61
2023-04-03T15:15:21.247Z,42.59
2023-04-03T15:17:54.637Z,41.80
2023-04-03T15:20:25.722Z,42.49
2023-04-03T15:22:53.456Z,41.96
2023-04-03T15:25:21.261Z,41.57
2023-04-03T15:27:48.980Z,41.44
2023-04-03T15:30:20.950Z,41.78
2023-04-03T15:32:50.406Z,42.81
2023-04-03T15:35:18.486Z,42.87
2023-04-03T15:37:46.624Z,42.87
2023-04-03T15:40:27.176Z,42.23
2023-04-03T15:42:55.004Z,41.89
2023-04-03T15:45:24.550Z,42.31
2023-04-03T15:47:52.861Z,42.75
2023-04-03T15:50:23.122Z,42.32
2023-04-03T15:52:54.931Z,43.34
2023-04-03T15:55:23.227Z,43.96
2023-04-03T15:57:51.040Z,43.01
2023-04-03T16:00:19.217Z,42.92
2023-04-03T16:02:52.849Z,42.67
2023-04-03T16:05:21.057Z,42.73
2023-04-03T16:07:49.180Z,42.45
2023-04-03T16:10:20.842Z,42.17
2023-04-03T16:12:49.949Z,42.72
2023-04-03T16:15:17.530Z,42.65
2023-04-03T16:17:45.580Z,42.69
2023-04-03T16:20:15.492Z,43.15
2023-04-03T16:22:43.909Z,42.84
2023-04-03T16:25:12.914Z,43.00
2023-04-03T16:27:40.957Z,43.00
2023-04-03T16:30:09.860Z,42.82
2023-04-03T16:32:39.196Z,42.72
2023-04-03T16:35:25.421Z,42.51
2023-04-03T16:37:54.345Z,42.15
2023-04-03T16:40:22.125Z,42.65
2023-04-03T16:42:50.015Z,42.78
2023-04-03T16:45:17.694Z,43.00
2023-04-03T16:47:45.602Z,42.81
2023-04-03T16:50:13.436Z,42.59
2023-04-03T16:52:41.284Z,43.05
2023-04-03T16:55:10.925Z,43.94
2023-04-03T16:57:38.558Z,43.53
2023-04-03T17:00:08.218Z,43.86
2023-04-03T17:02:36.041Z,43.27
2023-04-03T17:05:04.106Z,43.44
2023-04-03T17:07:31.816Z,44.43
2023-04-03T17:09:59.907Z,44.74
2023-04-03T17:12:28.833Z,44.16
2023-04-03T17:14:56.471Z,43.82
2023-04-03T17:17:27.883Z,44.27
2023-04-03T17:19:56.048Z,44.37
2023-04-03T17:22:24.168Z,45.03
2023-04-03T17:24:51.726Z,44.73
2023-04-03T17:27:19.410Z,45.55
2023-04-03T17:29:48.421Z,45.65
2023-04-03T17:32:16.436Z,44.84
2023-04-03T17:34:44.411Z,44.98
2023-04-03T17:37:14.576Z,45.03
2023-04-03T17:39:42.653Z,45.36
2023-04-03T17:42:11.679Z,45.86
2023-04-03T17:44:39.403Z,45.55
2023-04-03T17:47:08.457Z,45.79
2023-04-03T17:49:36.033Z,46.33
2023-04-03T17:52:03.713Z,47.88
2023-04-03T17:54:31.477Z,48.85
2023-04-03T17:56:59.098Z,47.37
2023-04-03T17:59:28.221Z,48.87
2023-04-03T18:01:56.808Z,48.50
2023-04-03T18:04:26.218Z,48.52
2023-04-03T18:06:56.751Z,48.44
2023-04-03T18:09:28.414Z,48.06
2023-04-03T18:11:57.310Z,47.88
2023-04-03T18:14:28.339Z,47.79
2023-04-03T18:16:57.413Z,47.77
2023-04-03T18:19:29.794Z,47.52
2023-04-03T18:22:02.627Z,47.74
2023-04-03T18:24:32.946Z,47.75
2023-04-03T18:27:03.277Z,47.93
2023-04-03T18:29:34.761Z,48.28
2023-04-03T18:32:07.117Z,48.10
2023-04-03T18:34:36.649Z,48.05
2023-04-03T18:37:05.899Z,48.04
2023-04-03T18:39:33.976Z,48.72
2023-04-03T18:42:06.382Z,48.87
2023-04-03T18:44:35.745Z,49.05
2023-04-03T18:47:03.620Z,49.16
2023-04-03T18:49:34.925Z,49.13
2023-04-03T18:52:04.606Z,49.02
2023-04-03T18:54:32.674Z,49.52
2023-04-03T18:57:01.230Z,50.05
2023-04-03T18:59:28.947Z,49.82
2023-04-03T19:01:57.890Z,50.08
2023-04-03T19:04:27.336Z,50.08
2023-04-03T19:06:55.103Z,50.55
2023-04-03T19:09:25.810Z,50.76
2023-04-03T19:11:53.565Z,50.14
2023-04-03T19:14:21.466Z,50.44
2023-04-03T19:16:49.221Z,50.34
2023-04-03T19:19:17.260Z,49.96
2023-04-03T19:21:47.268Z,50.03
2023-04-03T19:24:17.631Z,50.60
2023-04-03T19:26:51.836Z,50.16
2023-04-03T19:29:19.639Z,50.21
2023-04-03T19:31:47.654Z,50.81
2023-04-03T19:34:15.596Z,50.31
2023-04-03T19:36:44.120Z,50.32
2023-04-03T19:39:13.468Z,50.43
2023-04-03T19:41:45.555Z,50.95
2023-04-03T19:44:14.703Z,51.49
2023-04-03T19:46:50.604Z,51.16
2023-04-03T19:49:19.187Z,51.52
2023-04-03T19:51:46.970Z,51.62
2023-04-03T19:54:14.690Z,51.52
2023-04-03T19:56:42.321Z,51.33
2023-04-03T19:59:13.852Z,51.85
2023-04-03T20:01:47.397Z,51.55
2023-04-03T20:04:16.403Z,52.06
2023-04-03T20:06:44.142Z,51.97
2023-04-03T20:09:11.834Z,51.86
2023-04-03T20:11:41.082Z,51.90
2023-04-03T20:14:09.804Z,52.36
2023-04-03T20:16:38.138Z,52.46
2023-04-03T20:19:08.060Z,51.98
2023-04-03T20:21:36.711Z,52.48
2023-04-03T20:24:07.267Z,52.08
2023-04-03T20:26:37.505Z,53.07
2023-04-03T20:29:05.710Z,53.07
2023-04-03T20:31:33.737Z,52.75
2023-04-03T20:34:01.991Z,52.80
2023-04-03T20:36:31.772Z,53.41
2023-04-03T20:38:59.670Z,54.14
2023-04-03T20:41:27.553Z,53.62
2023-04-03T20:43:55.245Z,53.08
2023-04-03T20:46:38.166Z,53.49
2023-04-03T20:49:11.433Z,53.58
2023-04-03T20:51:42.172Z,54.59
2023-04-03T20:54:11.511Z,54.72
2023-04-03T20:56:39.178Z,54.74
2023-04-03T20:59:08.026Z,55.02
2023-04-03T21:01:38.153Z,54.97
2023-04-03T21:04:12.734Z,54.31
2023-04-03T21:07:18.353Z,54.79
2023-04-03T21:10:24.029Z,54.59
2023-04-03T21:13:29.225Z,55.02
2023-04-03T21:15:59.596Z,55.06
2023-04-03T21:18:52.331Z,54.57
2023-04-03T21:21:22.349Z,55.42
2023-04-03T21:23:51.122Z,54.88
2023-04-03T21:26:21.465Z,55.58
2023-04-03T21:28:51.427Z,54.89
2023-04-03T21:31:19.147Z,55.85
2023-04-03T21:33:48.122Z,55.51
2023-04-03T21:36:16.222Z,56.38
2023-04-03T21:38:47.590Z,55.95
2023-04-03T21:41:15.706Z,56.64
2023-04-03T21:43:43.302Z,54.90
2023-04-03T21:46:11.045Z,55.77
2023-04-03T21:48:39.228Z,55.26
2023-04-03T21:51:10.405Z,55.60
2023-04-03T21:53:38.290Z,55.87
2023-04-03T21:56:10.420Z,55.48
2023-04-03T21:58:39.047Z,55.63
2023-04-03T22:01:11.015Z,56.41
2023-04-03T22:03:38.859Z,56.58
2023-04-03T22:06:12.661Z,57.80
2023-04-03T22:08:40.691Z,57.03
2023-04-03T22:11:09.869Z,57.55
2023-04-03T22:13:38.069Z,56.60
2023-04-03T22:16:06.100Z,56.54
2023-04-03T22:18:34.441Z,56.05
2023-04-03T22:21:02.223Z,56.19
2023-04-03T22:23:31.733Z,56.11
2023-04-03T22:26:00.384Z,56.74
2023-04-03T22:28:28.523Z,57.18
2023-04-03T22:30:57.032Z,57.50
2023-04-03T22:33:24.645Z,57.56
2023-04-03T22:35:52.864Z,57.33
2023-04-03T22:38:20.505Z,57.96
2023-04-03T22:40:58.555Z,57.98
2023-04-03T22:43:26.473Z,58.16
2023-04-03T22:45:54.613Z,59.10
2023-04-03T22:48:22.809Z,59.23
2023-04-03T22:50:51.380Z,60.34
2023-04-03T22:53:19.626Z,60.40
2023-04-03T22:55:56.436Z,59.50
2023-04-03T22:58:26.213Z,60.68
2023-04-03T23:00:54.835Z,60.52
2023-04-03T23:03:23.406Z,60.65
2023-04-03T23:05:52.440Z,60.56
2023-04-03T23:08:20.379Z,61.03
2023-04-03T23:10:48.422Z,60.41
2023-04-03T23:13:17.698Z,60.84
2023-04-03T23:15:45.269Z,60.36
2023-04-03T23:18:13.609Z,60.86
2023-04-03T23:20:41.448Z,60.52
2023-04-03T23:23:09.271Z,59.96
2023-04-03T23:25:37.699Z,60.15
2023-04-03T23:28:05.298Z,60.75
2023-04-03T23:30:34.194Z,60.75
2023-04-03T23:33:01.838Z,60.99
2023-04-03T23:35:30.374Z,60.36
2023-04-03T23:37:57.959Z,60.19
2023-04-03T23:40:25.615Z,60.85
2023-04-03T23:42:53.249Z,60.33
2023-04-03T23:45:20.821Z,60.81
2023-04-03T23:47:50.022Z,60.80
2023-04-03T23:50:17.756Z,60.69
2023-04-03T23:52:45.585Z,61.06
2023-04-03T23:55:15.968Z,60.82
2023-04-03T23:57:43.538Z,61.16
